Time;durP1;ratioP1;P1;durP2;ratioP2;P2;SDS_P1;SDS_P2;PMS_P1;PMS_P2;Temp;Humidity;BMP_temperature;BMP_pressure;BME280_temperature;BME280_humidity;BME280_pressure;Samples;Min_cycle;Max_cycle;Signal;HPM_P1;HPM_P2
2022/04/27 00:01:15;;;;;;;22.90;17.20;;;;;;;10.19;64.55;100674.22;105642;1287;22925;-81
2022/04/27 00:03:42;;;;;;;22.30;17.20;;;;;;;10.11;64.41;100672.48;104862;1287;24192;-81
2022/04/27 00:06:09;;;;;;;26.00;19.70;;;;;;;10.05;64.56;100674.09;104936;1288;25393;-84
2022/04/27 00:08:38;;;;;;;25.20;18.00;;;;;;;10.00;64.73;100676.91;105344;1281;23301;-84
2022/04/27 00:11:05;;;;;;;26.90;18.10;;;;;;;9.99;64.92;100674.09;106311;1281;23961;-84
2022/04/27 00:13:31;;;;;;;23.60;18.90;;;;;;;10.02;65.10;100674.45;105637;1281;25527;-84
2022/04/27 00:15:57;;;;;;;24.60;19.50;;;;;;;10.03;65.17;100677.61;106045;1282;22586;-85
2022/04/27 00:18:24;;;;;;;24.70;18.70;;;;;;;10.03;65.03;100680.42;105824;1281;26486;-82
2022/04/27 00:20:50;;;;;;;21.50;18.30;;;;;;;10.01;65.11;100679.02;105542;1281;24321;-80
2022/04/27 00:23:17;;;;;;;25.30;18.80;;;;;;;9.97;65.08;100681.84;105486;1281;25265;-81
2022/04/27 00:25:44;;;;;;;22.60;18.30;;;;;;;9.91;65.10;100680.61;105445;1281;24237;-79
2022/04/27 00:28:11;;;;;;;22.30;19.20;;;;;;;9.87;65.29;100682.58;105417;1281;24015;-83
2022/04/27 00:30:38;;;;;;;20.40;16.50;;;;;;;9.85;65.39;100683.80;105524;1281;23216;-79
2022/04/27 00:33:05;;;;;;;19.70;16.50;;;;;;;9.86;65.50;100686.61;105588;1282;23910;-82
2022/04/27 00:35:31;;;;;;;22.20;17.60;;;;;;;9.88;65.53;100687.84;105650;1281;22653;-80
2022/04/27 00:37:58;;;;;;;25.90;18.70;;;;;;;9.88;65.58;100685.02;105428;1281;22580;-83
2022/04/27 00:40:24;;;;;;;21.70;17.70;;;;;;;9.85;65.55;100689.78;105322;1282;22651;-81
2022/04/27 00:42:51;;;;;;;21.40;17.70;;;;;;;9.82;65.55;100689.27;104720;1287;25464;-81
2022/04/27 00:45:18;;;;;;;20.80;17.70;;;;;;;9.81;65.68;100690.66;104681;1288;24424;-81
2022/04/27 00:47:44;;;;;;;21.60;19.10;;;;;;;9.79;65.84;100688.90;104780;1287;22852;-86
2022/04/27 00:50:11;;;;;;;21.10;18.70;;;;;;;9.77;65.82;100686.79;104795;1290;25411;-84
2022/04/27 00:52:38;;;;;;;25.00;19.00;;;;;;;9.74;65.97;100689.26;104815;1290;22753;-83
2022/04/27 00:55:06;;;;;;;24.10;19.90;;;;;;;9.72;65.90;100687.32;104986;1288;25283;-82
2022/04/27 00:57:34;;;;;;;23.90;20.10;;;;;;;9.69;66.02;100685.92;104948;1290;24337;-79
2022/04/27 01:00:03;;;;;;;24.20;20.30;;;;;;;9.66;66.10;100687.15;104801;1287;22790;-84
2022/04/27 01:02:29;;;;;;;23.80;19.40;;;;;;;9.59;66.20;100687.15;105330;1284;25389;-82
2022/04/27 01:04:56;;;;;;;23.40;19.40;;;;;;;9.43;66.27;100686.45;105821;1282;22562;-79
2022/04/27 01:07:24;;;;;;;21.20;18.10;;;;;;;9.37;66.60;100688.20;105475;1282;25911;-81
2022/04/27 01:09:51;;;;;;;20.00;17.90;;;;;;;9.35;66.80;100691.73;104700;1290;23469;-81
2022/04/27 01:12:20;;;;;;;24.20;19.00;;;;;;;9.21;66.65;100690.66;104887;1288;24035;-82
2022/04/27 01:14:58;;;;;;;22.00;18.50;;;;;;;9.06;67.16;100696.95;105031;1287;25415;-81
2022/04/27 01:17:25;;;;;;;25.80;19.00;;;;;;;9.03;67.57;100695.20;104727;1287;24350;-80
2022/04/27 01:19:52;;;;;;;20.20;18.00;;;;;;;9.00;67.57;100695.20;104901;1287;25270;-77
2022/04/27 01:22:19;;;;;;;22.80;18.90;;;;;;;8.87;67.52;100698.67;104828;1287;22655;-81
2022/04/27 01:24:46;;;;;;;23.50;19.80;;;;;;;8.76;67.95;100701.45;104975;1287;25395;-86
2022/04/27 01:27:13;;;;;;;22.70;19.40;;;;;;;8.80;68.24;100704.09;105757;1281;25272;-86
2022/04/27 01:29:39;;;;;;;24.30;19.70;;;;;;;8.85;68.37;100706.02;106323;1281;25530;-85
2022/04/27 01:32:07;;;;;;;23.20;17.40;;;;;;;8.90;68.41;100707.27;105762;1284;22971;-82
2022/04/27 01:34:34;;;;;;;23.70;19.70;;;;;;;8.96;68.32;100714.51;106567;1281;22811;-88
2022/04/27 01:39:46;;;;;;;23.60;19.30;;;;;;;9.05;68.25;100713.82;107689;1282;24617;-81
2022/04/27 01:42:14;;;;;;;22.90;19.40;;;;;;;9.08;68.13;100719.27;105464;1282;26549;-82
2022/04/27 01:44:40;;;;;;;23.00;19.10;;;;;;;9.08;68.02;100716.98;105399;1282;24254;-83
2022/04/27 01:47:07;;;;;;;23.00;19.80;;;;;;;9.09;68.05;100719.98;105695;1281;22718;-83
2022/04/27 01:49:34;;;;;;;30.30;21.00;;;;;;;9.08;68.12;100720.50;105446;1282;25381;-82
2022/04/27 01:54:46;;;;;;;23.40;20.40;;;;;;;9.04;68.31;100724.19;104987;1287;24484;-86
2022/04/27 01:57:12;;;;;;;27.20;20.40;;;;;;;9.00;68.09;100724.36;104770;1288;25463;-85
2022/04/27 01:59:41;;;;;;;23.30;20.20;;;;;;;8.97;68.16;100729.98;104736;1288;22567;-84
2022/04/27 02:02:09;;;;;;;23.30;19.70;;;;;;;8.95;68.39;100725.55;104021;1293;25430;-83
2022/04/27 02:04:42;;;;;;;24.70;18.80;;;;;;;8.95;68.41;100725.55;104549;1294;22564;-83
2022/04/27 02:07:11;;;;;;;21.90;18.40;;;;;;;8.94;68.36;100723.61;104498;1293;24263;-83
2022/04/27 02:09:37;;;;;;;24.90;19.60;;;;;;;8.96;68.37;100723.63;104702;1288;22752;-83
2022/04/27 02:12:05;;;;;;;25.50;20.60;;;;;;;8.94;68.25;100725.20;104774;1290;24011;-83
2022/04/27 02:14:32;;;;;;;22.00;19.20;;;;;;;8.92;68.34;100725.04;105112;1288;22625;-82
2022/04/27 02:17:00;;;;;;;24.20;21.00;;;;;;;8.87;68.34;100727.11;104496;1293;22505;-83
2022/04/27 02:19:26;;;;;;;23.00;20.20;;;;;;;8.76;68.26;100723.92;104593;1288;22701;-82
2022/04/27 02:21:53;;;;;;;24.00;20.00;;;;;;;8.74;68.53;100726.90;105540;1287;22931;-82
2022/04/27 02:24:19;;;;;;;26.10;20.40;;;;;;;8.74;68.68;100729.53;106890;1287;22528;-82
2022/04/27 02:26:45;;;;;;;21.80;19.40;;;;;;;8.72;68.81;100730.58;108099;1287;22591;-83
2022/04/27 02:29:12;;;;;;;23.70;20.40;;;;;;;8.67;68.74;100725.80;107911;1287;22663;-79
2022/04/27 02:31:38;;;;;;;22.70;18.90;;;;;;;8.67;68.72;100727.05;107715;1290;22721;-82
2022/04/27 02:34:05;;;;;;;22.60;18.80;;;;;;;8.67;68.71;100728.98;107806;1290;22612;-85
2022/04/27 02:36:33;;;;;;;24.10;19.30;;;;;;;8.66;68.62;100729.67;107224;1297;22612;-88
2022/04/27 02:39:00;;;;;;;23.50;19.70;;;;;;;8.66;68.71;100725.98;106992;1296;22607;-86
2022/04/27 02:41:28;;;;;;;22.10;19.00;;;;;;;8.64;68.65;100726.85;106962;1293;22829;-87
2022/04/27 02:43:55;;;;;;;23.30;20.40;;;;;;;8.62;68.61;100730.01;107361;1293;22774;-84
2022/04/27 02:46:21;;;;;;;22.50;19.00;;;;;;;8.62;68.78;100730.89;107252;1293;22624;-83
2022/04/27 02:51:51;;;;;;;;;;;;;;;8.56;68.67;100731.91;107419;1293;22910;-80
2022/04/27 02:54:23;;;;;;;24.00;20.00;;;;;;;8.53;68.69;100731.87;107012;1293;22595;-81
2022/04/27 02:56:58;;;;;;;23.90;20.30;;;;;;;8.49;68.71;100732.20;107243;1293;25289;-82
2022/04/27 02:59:25;;;;;;;23.70;19.30;;;;;;;8.43;68.81;100732.17;105537;1299;22674;-81
2022/04/27 03:01:51;;;;;;;22.50;17.70;;;;;;;8.41;68.87;100739.18;104509;1299;24267;-83
2022/04/27 03:04:18;;;;;;;20.90;18.10;;;;;;;8.38;69.04;100736.70;104916;1299;22736;-84
2022/04/27 03:06:45;;;;;;;22.00;18.30;;;;;;;8.40;68.90;100740.58;105257;1293;22765;-80
2022/04/27 03:09:11;;;;;;;22.80;18.40;;;;;;;8.39;69.06;100736.89;105275;1296;23960;-81
2022/04/27 03:11:38;;;;;;;23.70;19.20;;;;;;;8.39;69.01;100742.86;104368;1297;24007;-78
2022/04/27 03:14:16;;;;;;;24.10;19.90;;;;;;;8.38;69.05;100748.47;103964;1297;25807;-86
2022/04/27 03:16:42;;;;;;;25.40;19.70;;;;;;;8.33;68.93;100746.68;103847;1297;23166;-83
2022/04/27 03:19:08;;;;;;;23.00;19.40;;;;;;;8.27;69.11;100745.40;104057;1294;22642;-80
2022/04/27 03:21:35;;;;;;;21.30;18.90;;;;;;;8.28;69.32;100748.23;103814;1300;22576;-81
2022/04/27 03:24:01;;;;;;;23.80;18.20;;;;;;;8.27;69.23;100751.73;103798;1297;25376;-82
2022/04/27 03:26:28;;;;;;;24.60;20.10;;;;;;;8.26;69.12;100753.65;103876;1296;22558;-81
2022/04/27 03:28:56;;;;;;;23.40;18.20;;;;;;;8.20;69.07;100754.31;104207;1293;22599;-80
2022/04/27 03:31:23;;;;;;;21.10;17.60;;;;;;;8.19;69.03;100764.84;103976;1297;24388;-87
2022/04/27 03:33:52;;;;;;;24.30;18.50;;;;;;;8.19;69.33;100769.94;104244;1299;22585;-84
2022/04/27 03:36:19;;;;;;;24.80;19.10;;;;;;;8.22;69.19;100769.23;104609;1296;24268;-87
2022/04/27 03:38:48;;;;;;;29.10;19.80;;;;;;;8.24;69.38;100768.20;105787;1296;22637;-83
2022/04/27 03:41:22;;;;;;;27.40;18.10;;;;;;;8.29;69.33;100772.29;107066;1288;22723;-79
2022/04/27 03:43:50;;;;;;;24.70;18.80;;;;;;;8.28;69.23;100770.69;106396;1287;22702;-79
2022/04/27 03:46:19;;;;;;;25.90;20.10;;;;;;;8.30;69.36;100770.35;106768;1287;22796;-80
2022/04/27 03:49:06;;;;;;;23.80;18.00;;;;;;;8.31;69.25;100779.48;106867;1283;23950;-80
2022/04/27 03:51:32;;;;;;;23.70;19.60;;;;;;;8.29;69.29;100777.88;106669;1282;22771;-80
2022/04/27 03:53:59;;;;;;;21.30;18.20;;;;;;;8.26;69.16;100781.20;105882;1288;22620;-75
2022/04/27 03:56:26;;;;;;;22.80;17.00;;;;;;;8.26;69.13;100787.70;105329;1290;22581;-76
2022/04/27 03:58:53;;;;;;;19.00;15.90;;;;;;;8.25;69.17;100789.98;104632;1291;22511;-79
2022/04/27 04:01:20;;;;;;;22.50;17.00;;;;;;;8.29;69.32;100791.59;104386;1291;25386;-79
2022/04/27 04:03:47;;;;;;;21.40;17.40;;;;;;;8.35;69.01;100797.41;104396;1288;24171;-78
2022/04/27 04:06:13;;;;;;;20.30;16.20;;;;;;;8.34;69.01;100798.45;104618;1287;23205;-73
2022/04/27 04:08:46;;;;;;;22.00;17.50;;;;;;;8.36;69.13;100803.73;104784;1288;22565;-80
2022/04/27 04:11:13;;;;;;;20.30;17.40;;;;;;;8.38;69.03;100807.09;104767;1288;24242;-81
2022/04/27 04:14:01;;;;;;;24.00;17.80;;;;;;;8.38;68.89;100809.53;105991;1281;23981;-87
2022/04/27 04:16:49;;;;;;;20.20;17.00;;;;;;;8.34;68.74;100817.42;106315;1282;23994;-85
2022/04/27 04:19:48;;;;;;;20.60;16.90;;;;;;;8.33;68.86;100819.69;104937;1288;22576;-84
2022/04/27 04:22:39;;;;;;;19.20;15.80;;;;;;;8.32;68.76;100821.78;105077;1290;22519;-81
2022/04/27 04:28:32;;;;;;;21.40;16.50;;;;;;;8.28;68.67;100825.44;106521;1287;22668;-83
2022/04/27 04:31:04;;;;;;;17.70;14.90;;;;;;;8.28;68.61;100826.33;106748;1290;23070;-84
2022/04/27 04:33:31;;;;;;;19.60;16.00;;;;;;;8.32;68.65;100827.92;106297;1287;22598;-84
2022/04/27 04:35:59;;;;;;;21.40;16.30;;;;;;;8.36;68.51;100831.29;105535;1288;24161;-84
2022/04/27 04:38:26;;;;;;;18.50;15.30;;;;;;;8.35;68.46;100836.02;107134;1288;23136;-83
2022/04/27 04:40:59;;;;;;;25.30;17.20;;;;;;;8.36;68.49;100835.16;106900;1288;22567;-85
2022/04/27 04:43:43;;;;;;;19.80;15.50;;;;;;;8.40;68.44;100842.55;105218;1288;25282;-73
2022/04/27 04:46:27;;;;;;;20.10;15.60;;;;;;;8.40;68.39;100843.95;107467;1287;22733;-93
2022/04/27 04:49:31;;;;;;;20.20;15.90;;;;;;;8.38;68.32;100846.92;108313;1271;22589;-90
2022/04/27 04:52:16;;;;;;;19.00;15.30;;;;;;;8.35;68.33;100851.11;108845;1271;22527;-90
2022/04/27 04:55:05;;;;;;;22.40;16.10;;;;;;;8.37;68.22;100852.88;109097;1281;22638;-91
2022/04/27 04:57:52;;;;;;;22.30;15.90;;;;;;;8.40;68.20;100856.77;108795;1271;22555;-88
2022/04/27 05:00:39;;;;;;;17.90;14.90;;;;;;;8.39;67.83;100858.15;108891;1281;22549;-93
2022/04/27 05:03:33;;;;;;;16.50;13.80;;;;;;;8.37;67.75;100867.63;108701;1281;22531;-90
2022/04/27 05:06:05;;;;;;;17.40;13.80;;;;;;;8.36;67.63;100867.98;108292;1281;964549;-88
2022/04/27 05:08:52;;;;;;;18.00;12.80;;;;;;;8.39;67.57;100874.84;108637;1281;22576;-92
2022/04/27 05:11:43;;;;;;;17.10;13.20;;;;;;;8.45;67.37;100874.35;106058;1281;24230;-82
2022/04/27 05:14:43;;;;;;;16.20;12.30;;;;;;;8.49;67.21;100879.99;106898;1282;22612;-91
2022/04/27 05:23:58;;;;;;;18.80;13.40;;;;;;;8.57;67.07;100892.39;108706;1271;22573;-94
2022/04/27 05:35:43;;;;;;;17.90;12.90;;;;;;;8.74;66.63;100902.33;108358;1271;22731;-84
2022/04/27 05:38:33;;;;;;;18.20;11.60;;;;;;;8.77;66.21;100907.96;105590;1274;22720;-80
2022/04/27 05:41:19;;;;;;;16.10;11.60;;;;;;;8.78;66.33;100914.64;104979;1284;24002;-81
2022/04/27 05:44:09;;;;;;;19.20;12.60;;;;;;;8.83;66.22;100920.13;104597;1290;22661;-82
2022/04/27 05:46:44;;;;;;;18.60;11.40;;;;;;;8.89;66.19;100921.03;104750;1287;22739;-79
2022/04/27 05:49:16;;;;;;;23.40;12.00;;;;;;;8.91;65.84;100923.85;104255;1293;22583;-81
2022/04/27 05:52:03;;;;;;;16.40;11.30;;;;;;;8.93;65.72;100928.27;104196;1294;23961;-81
2022/04/27 05:54:49;;;;;;;17.70;11.90;;;;;;;8.96;65.72;100931.62;104151;1293;22605;-81
2022/04/27 05:57:42;;;;;;;16.10;11.20;;;;;;;8.97;65.51;100934.63;104083;1296;25432;-82
2022/04/27 06:00:16;;;;;;;16.70;12.30;;;;;;;9.01;65.22;100939.20;104171;1293;22576;-81
2022/04/27 06:02:44;;;;;;;16.80;11.10;;;;;;;9.05;65.19;100937.99;104448;1290;22754;-81
2022/04/27 06:05:12;;;;;;;13.80;10.50;;;;;;;9.09;64.99;100943.81;104765;1290;22729;-79
2022/04/27 06:07:39;;;;;;;15.30;10.80;;;;;;;9.11;64.81;100942.77;104704;1284;24310;-78
2022/04/27 06:10:09;;;;;;;11.50;9.90;;;;;;;9.15;64.76;100944.02;105150;1284;22900;-80
2022/04/27 06:12:47;;;;;;;13.90;10.10;;;;;;;9.20;64.60;100944.59;104834;1284;22674;-76
2022/04/27 06:15:32;;;;;;;14.80;10.80;;;;;;;9.23;64.43;100944.96;105012;1284;24677;-80
2022/04/27 06:18:01;;;;;;;15.60;10.40;;;;;;;9.21;64.20;100947.75;105074;1284;22585;-79
2022/04/27 06:20:28;;;;;;;16.70;11.30;;;;;;;9.23;64.18;100953.04;105059;1285;22592;-77
2022/04/27 06:22:56;;;;;;;16.30;10.20;;;;;;;9.28;64.16;100949.37;104972;1284;22586;-81
2022/04/27 06:25:25;;;;;;;16.30;10.10;;;;;;;9.33;63.98;100949.73;105051;1284;22554;-80
2022/04/27 06:28:08;;;;;;;13.40;9.70;;;;;;;9.39;63.95;100951.35;104730;1284;22583;-81
2022/04/27 06:30:37;;;;;;;14.40;10.00;;;;;;;9.45;63.78;100953.15;105114;1284;25350;-80
2022/04/27 06:33:03;;;;;;;19.50;11.10;;;;;;;9.52;63.51;100954.40;104666;1288;22588;-77
2022/04/27 06:35:30;;;;;;;15.40;9.90;;;;;;;9.57;63.37;100952.83;104737;1288;25283;-79
2022/04/27 06:38:01;;;;;;;17.40;9.30;;;;;;;9.63;63.25;100953.94;103993;1293;25362;-81
2022/04/27 06:40:48;;;;;;;;;;;;;;;9.68;63.09;100956.59;103976;1293;22714;-81
2022/04/27 06:43:15;;;;;;;17.30;10.10;;;;;;;9.71;62.99;100956.06;104044;1293;22567;-80
2022/04/27 06:45:48;;;;;;;12.10;8.60;;;;;;;9.77;62.72;100956.43;104243;1293;23032;-78
2022/04/27 06:48:49;;;;;;;11.70;9.00;;;;;;;9.84;62.67;100955.41;103665;1299;23138;-79
2022/04/27 06:51:42;;;;;;;14.20;9.30;;;;;;;9.90;62.33;100953.13;104087;1291;22561;-81
2022/04/27 06:54:27;;;;;;;11.90;9.50;;;;;;;9.97;62.03;100954.73;104554;1290;22714;-79
2022/04/27 06:57:12;;;;;;;12.40;8.90;;;;;;;10.06;62.17;100955.82;104570;1290;22595;-79
2022/04/27 06:59:59;;;;;;;12.10;8.50;;;;;;;10.17;61.96;100957.23;104487;1290;22594;-80
2022/04/27 07:02:28;;;;;;;14.00;8.50;;;;;;;10.25;61.62;100958.84;104303;1288;25392;-78
2022/04/27 07:05:00;;;;;;;12.70;8.30;;;;;;;10.32;61.21;100961.13;104793;1285;22606;-80
2022/04/27 07:07:27;;;;;;;13.60;8.40;;;;;;;10.39;61.08;100962.54;105128;1284;25342;-79
2022/04/27 07:09:55;;;;;;;17.20;8.20;;;;;;;10.47;60.87;100965.73;105025;1285;22598;-78
2022/04/27 07:12:22;;;;;;;9.60;7.80;;;;;;;10.55;60.76;100963.46;104889;1287;24244;-81
2022/04/27 07:14:51;;;;;;;11.60;8.80;;;;;;;10.62;60.68;100963.11;104575;1288;23995;-80
2022/04/27 07:17:18;;;;;;;10.70;7.70;;;;;;;10.72;60.57;100967.35;104762;1290;22571;-80
2022/04/27 07:19:45;;;;;;;9.00;6.90;;;;;;;10.80;60.56;100965.23;104328;1291;22565;-80
2022/04/27 07:22:12;;;;;;;13.30;8.20;;;;;;;10.88;60.07;100964.69;104622;1287;22722;-79
2022/04/27 07:24:38;;;;;;;8.90;6.80;;;;;;;10.96;60.06;100966.26;104651;1287;22771;-80
2022/04/27 07:27:05;;;;;;;10.00;6.80;;;;;;;11.07;59.67;100972.77;104688;1287;23972;-82
2022/04/27 07:29:32;;;;;;;8.60;6.60;;;;;;;11.17;59.44;100974.87;104469;1291;22549;-80
2022/04/27 07:31:59;;;;;;;10.00;6.40;;;;;;;11.25;58.90;100972.36;104333;1288;26568;-82
2022/04/27 07:34:27;;;;;;;8.70;6.80;;;;;;;11.34;58.88;100975.16;104428;1291;24716;-80
2022/04/27 07:36:57;;;;;;;8.30;5.80;;;;;;;11.45;58.74;100972.48;105079;1284;23109;-80
2022/04/27 07:39:25;;;;;;;11.20;7.00;;;;;;;11.56;58.45;100980.58;106252;1284;22649;-80
2022/04/27 07:41:51;;;;;;;8.40;5.80;;;;;;;11.68;58.26;100982.81;106223;1284;23906;-79
2022/04/27 07:44:17;;;;;;;9.50;6.20;;;;;;;11.78;57.73;100983.47;106313;1284;23991;-80
2022/04/27 07:46:47;;;;;;;8.10;5.50;;;;;;;11.87;57.78;100982.73;106773;1284;22644;-79
2022/04/27 07:49:19;;;;;;;7.70;5.90;;;;;;;12.00;57.66;100983.01;107009;1284;22751;-81
2022/04/27 07:51:47;;;;;;;7.90;5.90;;;;;;;12.12;57.07;100984.21;106827;1284;22513;-78
2022/04/27 07:54:15;;;;;;;8.40;5.80;;;;;;;12.24;56.80;100985.55;106529;1284;23949;-79
2022/04/27 07:56:42;;;;;;;7.00;5.80;;;;;;;12.34;56.43;100983.19;105308;1284;25569;-78
2022/04/27 07:59:08;;;;;;;7.00;5.30;;;;;;;12.45;56.41;100989.13;104774;1288;25508;-82
2022/04/27 08:01:35;;;;;;;8.10;5.00;;;;;;;12.57;55.89;100989.38;104707;1288;25587;-77
2022/04/27 08:04:01;;;;;;;9.30;5.50;;;;;;;12.71;55.84;100988.91;104710;1287;24707;-80
2022/04/27 08:06:28;;;;;;;9.30;5.00;;;;;;;12.86;56.31;100988.78;104785;1287;25545;-80
2022/04/27 08:08:54;;;;;;;11.20;5.00;;;;;;;13.02;55.61;100995.20;104649;1288;23954;-81
2022/04/27 08:11:22;;;;;;;7.30;4.80;;;;;;;13.14;54.98;100994.16;104720;1287;25885;-81
2022/04/27 08:13:49;;;;;;;4.60;4.00;;;;;;;13.27;54.76;100995.11;104478;1291;25388;-79
2022/04/27 08:16:16;;;;;;;7.40;4.20;;;;;;;13.39;53.78;100998.34;104801;1288;22780;-79
2022/04/27 08:18:43;;;;;;;7.20;4.00;;;;;;;13.49;53.45;100992.77;105022;1285;24373;-80
2022/04/27 08:21:15;;;;;;;5.80;4.30;;;;;;;13.60;53.45;100988.05;105197;1284;23077;-84
2022/04/27 08:23:46;;;;;;;11.50;4.60;;;;;;;13.72;52.84;100991.10;104332;1290;22563;-81
2022/04/27 08:26:14;;;;;;;9.10;4.70;;;;;;;13.84;52.62;100988.81;104396;1291;24254;-80
2022/04/27 08:28:42;;;;;;;5.60;4.40;;;;;;;13.95;52.18;100990.80;104667;1293;22582;-84
2022/04/27 08:31:13;;;;;;;4.20;3.40;;;;;;;14.06;52.25;100989.05;104742;1291;25259;-79
2022/04/27 08:33:40;;;;;;;5.30;4.40;;;;;;;14.20;51.73;100992.92;105233;1292;22602;-78
2022/04/27 08:36:07;;;;;;;4.90;3.40;;;;;;;14.34;51.38;100996.80;104995;1293;24285;-79
2022/04/27 08:38:53;;;;;;;4.10;3.60;;;;;;;14.46;50.83;100995.89;105288;1292;22712;-80
2022/04/27 08:41:19;;;;;;;4.90;3.20;;;;;;;14.60;50.66;100995.69;106090;1287;22570;-83
2022/04/27 08:43:46;;;;;;;6.80;3.60;;;;;;;14.76;50.49;100997.91;106490;1290;23831;-79
2022/04/27 08:46:15;;;;;;;5.00;3.80;;;;;;;14.90;49.88;100992.20;106920;1290;22982;-79
2022/04/27 08:48:50;;;;;;;4.90;3.90;;;;;;;15.02;49.29;100994.31;107255;1290;22512;-78
2022/04/27 08:51:18;;;;;;;7.20;3.70;;;;;;;15.14;49.24;100991.77;107592;1290;22693;-80
2022/04/27 08:53:45;;;;;;;7.70;3.60;;;;;;;15.33;49.05;100993.73;107562;1290;22771;-79
2022/04/27 08:56:13;;;;;;;3.90;3.60;;;;;;;15.48;48.59;100998.58;107438;1290;22608;-80
2022/04/27 08:58:40;;;;;;;8.80;3.30;;;;;;;15.63;48.06;100993.51;107416;1293;22691;-81
2022/04/27 09:01:08;;;;;;;5.20;3.40;;;;;;;15.76;47.51;100996.94;107658;1284;25325;-80
2022/04/27 09:03:38;;;;;;;3.80;3.00;;;;;;;15.92;47.00;100998.05;108288;1284;22885;-80
2022/04/27 09:06:12;;;;;;;6.70;2.80;;;;;;;16.07;46.24;100994.73;108248;1284;22569;-80
2022/04/27 09:08:46;;;;;;;3.20;2.90;;;;;;;16.14;45.33;100991.00;108135;1287;22573;-79
2022/04/27 09:11:26;;;;;;;5.70;3.20;;;;;;;16.30;45.50;100988.52;108128;1286;22572;-81
2022/04/27 09:13:59;;;;;;;3.30;2.70;;;;;;;16.46;44.78;100989.77;107967;1284;24239;-79
2022/04/27 09:22:06;;;;;;;4.00;2.50;;;;;;;17.16;43.35;100989.79;105685;1284;24303;-78
2022/04/27 09:24:53;;;;;;;3.10;2.10;;;;;;;17.33;42.52;100993.78;105139;1284;25860;-78
2022/04/27 09:27:22;;;;;;;4.50;2.10;;;;;;;17.58;42.51;100989.86;104960;1285;22597;-76
2022/04/27 09:29:59;;;;;;;2.40;2.20;;;;;;;17.83;41.19;100989.00;105268;1284;24206;-76
2022/04/27 09:32:26;;;;;;;4.20;2.60;;;;;;;18.03;40.18;100990.69;104686;1291;23204;-78
2022/04/27 09:34:53;;;;;;;5.10;2.30;;;;;;;18.19;39.82;100987.57;104445;1290;24172;-76
2022/04/27 09:37:21;;;;;;;2.30;2.10;;;;;;;18.40;40.40;100986.73;104480;1293;26029;-74
2022/04/27 09:40:16;;;;;;;3.40;2.60;;;;;;;18.52;40.04;100985.80;105043;1290;24558;-80
2022/04/27 09:42:46;;;;;;;2.80;2.50;;;;;;;18.40;39.74;100987.80;104899;1290;22597;-78
2022/04/27 09:45:18;;;;;;;6.60;2.30;;;;;;;18.25;39.27;100983.27;104589;1290;25054;-75
2022/04/27 09:47:53;;;;;;;2.20;2.00;;;;;;;18.14;39.28;100979.52;104670;1293;22708;-79
2022/04/27 09:50:20;;;;;;;;;;;;;;;17.93;38.56;100986.36;104897;1287;24616;-80
2022/04/27 09:52:47;;;;;;;2.60;2.40;;;;;;;17.78;39.17;100992.51;105226;1287;23019;-79
2022/04/27 09:55:15;;;;;;;2.30;2.10;;;;;;;17.65;39.10;100993.23;104843;1287;24930;-79
2022/04/27 09:57:56;;;;;;;3.60;2.70;;;;;;;17.51;39.25;100992.22;104701;1294;27045;-79
2022/04/27 10:00:25;;;;;;;2.50;2.20;;;;;;;17.41;38.99;100998.54;104711;1294;22577;-80
2022/04/27 10:02:54;;;;;;;3.50;2.70;;;;;;;17.35;38.87;100999.79;104737;1294;25550;-80
2022/04/27 10:05:22;;;;;;;3.50;2.30;;;;;;;17.32;38.77;101000.02;104278;1296;24678;-78
2022/04/27 10:07:51;;;;;;;3.70;2.10;;;;;;;17.29;38.26;100997.80;104247;1299;22599;-80
2022/04/27 10:10:17;;;;;;;2.70;2.40;;;;;;;17.29;38.09;100998.70;103900;1298;24355;-77
2022/04/27 10:12:46;;;;;;;3.60;2.50;;;;;;;17.26;38.36;100997.89;103821;1300;22595;-81
2022/04/27 10:15:13;;;;;;;3.10;2.50;;;;;;;17.26;38.63;100998.60;103808;1299;25390;-80
2022/04/27 10:17:40;;;;;;;3.60;2.50;;;;;;;17.34;38.68;100996.77;104426;1296;24796;-79
2022/04/27 10:20:26;;;;;;;6.00;2.20;;;;;;;17.66;38.56;100986.09;104229;1296;24350;-80
2022/04/27 10:23:21;;;;;;;5.30;2.20;;;;;;;18.19;38.00;100991.64;104336;1294;22807;-80
2022/04/27 10:26:28;;;;;;;3.10;2.30;;;;;;;18.64;38.12;100993.60;104911;1285;22582;-80
2022/04/27 10:28:56;;;;;;;3.20;2.20;;;;;;;19.07;37.43;100989.15;105011;1284;22599;-79
2022/04/27 10:31:44;;;;;;;2.70;2.10;;;;;;;19.44;37.08;100988.02;104973;1288;23124;-80
2022/04/27 10:34:17;;;;;;;2.50;2.00;;;;;;;19.79;35.85;100990.82;105443;1285;24026;-80
2022/04/27 10:36:47;;;;;;;4.00;1.70;;;;;;;20.00;35.56;100993.10;105601;1284;25956;-76
2022/04/27 10:39:16;;;;;;;2.30;2.00;;;;;;;20.19;34.95;100990.38;105654;1287;25327;-78
2022/04/27 10:41:49;;;;;;;4.50;2.20;;;;;;;20.14;35.04;100995.61;105066;1290;22697;-79
2022/04/27 10:44:15;;;;;;;3.90;1.90;;;;;;;19.92;34.30;100993.23;104726;1293;25466;-78
2022/04/27 10:46:44;;;;;;;6.00;2.20;;;;;;;19.63;34.39;100997.52;104599;1293;22722;-83
2022/04/27 10:49:30;;;;;;;4.40;2.20;;;;;;;19.36;34.87;100997.60;104411;1293;22979;-83
2022/04/27 10:52:08;;;;;;;2.60;2.00;;;;;;;19.20;35.08;100998.71;104467;1293;22913;-84
2022/04/27 10:54:38;;;;;;;2.40;2.10;;;;;;;19.08;35.10;101002.13;104514;1293;26983;-79
2022/04/27 10:57:16;;;;;;;2.70;1.80;;;;;;;19.00;35.34;100998.83;104503;1293;23385;-78
2022/04/27 11:00:03;;;;;;;2.90;2.00;;;;;;;18.92;34.83;101004.11;104233;1293;24801;-80
2022/04/27 11:02:33;;;;;;;2.00;1.90;;;;;;;18.78;34.89;101004.20;104759;1290;22809;-82
2022/04/27 11:05:01;;;;;;;3.60;1.70;;;;;;;18.63;34.66;101004.53;104974;1290;24210;-78
2022/04/27 11:07:54;;;;;;;6.20;2.30;;;;;;;18.50;35.23;101004.93;105292;1290;25431;-80
2022/04/27 11:10:21;;;;;;;2.60;2.00;;;;;;;18.47;35.29;101000.93;105275;1291;24229;-78
2022/04/27 11:12:51;;;;;;;2.40;2.00;;;;;;;18.49;35.24;101002.51;105466;1290;23976;-78
2022/04/27 11:15:23;;;;;;;4.20;2.30;;;;;;;18.48;35.49;101003.21;105764;1290;22512;-79
2022/04/27 11:18:02;;;;;;;2.70;1.70;;;;;;;18.48;35.45;101006.27;106224;1284;22945;-80
2022/04/27 11:20:30;;;;;;;;;;;;;;;18.51;35.15;101006.35;106212;1284;26509;-80
2022/04/27 11:22:59;;;;;;;2.40;2.00;;;;;;;18.52;34.85;101003.48;105986;1284;22628;-80
2022/04/27 11:25:32;;;;;;;2.40;2.00;;;;;;;18.47;34.50;101000.57;105664;1285;24236;-81
2022/04/27 11:28:01;;;;;;;3.20;2.20;;;;;;;18.42;34.74;101004.12;105071;1290;22603;-80
2022/04/27 11:30:30;;;;;;;5.10;2.20;;;;;;;18.43;34.66;101001.07;105160;1292;22642;-78
2022/04/27 11:33:00;;;;;;;2.90;2.30;;;;;;;18.44;34.51;101002.11;105769;1290;22590;-78
2022/04/27 11:35:44;;;;;;;2.60;1.70;;;;;;;18.45;33.97;101000.64;106032;1290;22584;-77
2022/04/27 11:38:32;;;;;;;2.40;1.90;;;;;;;18.54;33.03;101000.18;106675;1290;22522;-81
2022/04/27 11:40:59;;;;;;;4.90;1.70;;;;;;;18.85;32.29;100998.28;106264;1290;22640;-80
2022/04/27 11:43:32;;;;;;;2.30;1.60;;;;;;;18.92;32.31;101000.02;106285;1289;22743;-79
2022/04/27 11:45:58;;;;;;;4.20;1.80;;;;;;;19.00;32.29;100996.14;107321;1287;22584;-77
2022/04/27 11:48:31;;;;;;;1.60;1.50;;;;;;;19.17;31.46;100998.82;107961;1284;22557;-80
2022/04/27 11:51:00;;;;;;;1.90;1.30;;;;;;;19.28;30.87;100996.63;107391;1282;22550;-79
2022/04/27 11:53:27;;;;;;;2.20;1.90;;;;;;;19.35;30.72;100996.38;106580;1284;22632;-79
2022/04/27 11:55:54;;;;;;;2.30;1.60;;;;;;;19.36;30.70;100997.22;106382;1284;24282;-80
2022/04/27 11:58:26;;;;;;;2.40;1.70;;;;;;;19.26;30.93;101000.45;106088;1284;22717;-81
2022/04/27 12:00:57;;;;;;;2.80;1.90;;;;;;;19.13;31.06;100996.61;105940;1285;22511;-81
2022/04/27 12:03:25;;;;;;;2.60;2.00;;;;;;;19.12;31.68;100991.86;105406;1284;22505;-77
2022/04/27 12:05:54;;;;;;;3.50;2.10;;;;;;;19.01;31.10;100989.17;105452;1284;22866;-80
2022/04/27 12:08:25;;;;;;;2.60;2.00;;;;;;;18.81;31.65;100994.48;105463;1284;25837;-81